»·PEaware :: DAL822 KRNO-KFAT

DAL822 :: KRNO-KFAT

FLIGHT INFORMATION

Flight Status: Arrived
Operator:
Delta Air Lines
More flights by this operator :: More flights under this callsign
Pilot: Max W. (2591)
Aircraft: BOEING 737-200
(B732)
More flights by this aircraft type
Origin: KRNO Reno/Tahoe Intl
United States
Destination: KFAT Fresno Yosemite Intl
United States
More flights between these airports :: More routes between these airports
Route: +RENO9 FMG V165 CZQ
File this flight plan on PilotEdge
Remarks:
Altitude:
(Current/Filed)
20,000ft
Speed:
(Current/Filed)
450kts
Departed: 06-Aug-18 04:20 PM
Arrived: 06-Aug-18 04:55 PM
Distance/Time
Traveled:
163nm/0:35
Distance/Time
To Go:
Arrived

Flight Plot

Page will automatically refresh every two minutes.

Flight plan parsing failed; only flown route is shown


Map Options




Map Legend


Flown Route
Filed Route
Departure Airport
Arrival Airport
Navaid (VOR, NDB)
Fix

Horizontal Profiles

Position Reports

Time Latitude Longitude Heading Altitude Ground
Speed
06-Aug-18 15:55 39.505240 -119.773164 184 4418ft 0kts
06-Aug-18 15:56 39.505240 -119.773164 184 4418ft 0kts
06-Aug-18 15:57 39.505240 -119.773164 184 4418ft 0kts
06-Aug-18 15:58 39.505240 -119.773164 184 4418ft 0kts
06-Aug-18 15:59 39.505240 -119.773164 184 4418ft 0kts
06-Aug-18 16:00 39.505240 -119.773164 184 4418ft 0kts
06-Aug-18 16:01 39.505240 -119.773164 184 4418ft 0kts
06-Aug-18 16:02 39.505240 -119.773164 184 4418ft 0kts
06-Aug-18 16:03 39.505240 -119.773163 184 4418ft 0kts
06-Aug-18 16:04 39.505240 -119.773163 184 4418ft 0kts
06-Aug-18 16:05 39.505240 -119.773163 184 4417ft 0kts
06-Aug-18 16:06 39.505240 -119.773163 184 4417ft 0kts
06-Aug-18 16:07 39.505240 -119.773163 184 4417ft 0kts
06-Aug-18 16:08 39.505240 -119.773163 184 4417ft 0kts
06-Aug-18 16:09 39.505240 -119.773163 184 4417ft 0kts
06-Aug-18 16:10 39.505240 -119.773163 184 4417ft 0kts
06-Aug-18 16:11 39.505240 -119.773163 184 4417ft 0kts
06-Aug-18 16:12 39.505240 -119.773163 184 4417ft 0kts
06-Aug-18 16:13 39.505237 -119.773164 184 4417ft 0kts
06-Aug-18 16:14 39.505655 -119.773122 184 4417ft 1kts
06-Aug-18 16:15 39.505940 -119.773411 96 4417ft 0kts
06-Aug-18 16:16 39.505940 -119.773410 96 4417ft 0kts
06-Aug-18 16:17 39.505928 -119.772113 92 4417ft 14kts
06-Aug-18 16:18 39.510649 -119.771478 359 4417ft 22kts
06-Aug-18 16:19 39.513786 -119.770606 97 4417ft 0kts
06-Aug-18 16:20 39.513059 -119.769218 178 4417ft 19kts
06-Aug-18 16:21 39.478517 -119.769516 180 5048ft 180kts
06-Aug-18 16:22 39.421944 -119.767083 179 6361ft 246kts
06-Aug-18 16:23 39.345782 -119.764695 176 8219ft 303kts
06-Aug-18 16:24 39.264827 -119.758583 164 11435ft 296kts
06-Aug-18 16:25 39.184913 -119.728681 162 13986ft 304kts
06-Aug-18 16:26 39.101215 -119.696287 162 15359ft 343kts
06-Aug-18 16:27 38.999982 -119.691380 182 16519ft 378kts
06-Aug-18 16:28 38.895926 -119.698681 182 18189ft 388kts
06-Aug-18 16:29 38.788064 -119.705907 182 19769ft 396kts
06-Aug-18 16:30 38.675490 -119.713401 182 20223ft 422kts
06-Aug-18 16:31 38.555667 -119.721351 182 20288ft 439kts
06-Aug-18 16:32 38.434925 -119.740829 184 20301ft 439kts
06-Aug-18 16:33 38.313561 -119.750731 181 20305ft 438kts
06-Aug-18 16:34 38.191969 -119.756808 181 20307ft 437kts
06-Aug-18 16:35 38.070755 -119.762479 181 20307ft 437kts
06-Aug-18 16:36 37.949525 -119.768014 181 20120ft 441kts
06-Aug-18 16:37 37.831045 -119.773299 181 20025ft 442kts
06-Aug-18 16:38 37.711037 -119.778688 181 18933ft 427kts
06-Aug-18 16:39 37.595954 -119.783877 180 16946ft 393kts
06-Aug-18 16:40 37.483198 -119.788758 180 14201ft 400kts
06-Aug-18 16:41 37.373266 -119.793617 180 11348ft 392kts
06-Aug-18 16:42 37.264418 -119.798445 180 10030ft 401kts
06-Aug-18 16:43 37.152652 -119.803407 180 10022ft 401kts
06-Aug-18 16:44 37.045464 -119.808168 182 9975ft 341kts
06-Aug-18 16:45 36.967971 -119.784782 126 8062ft 302kts
06-Aug-18 16:46 36.924314 -119.698469 122 5568ft 288kts
06-Aug-18 16:47 36.885630 -119.621321 122 4978ft 246kts
06-Aug-18 16:48 36.844085 -119.538515 122 4972ft 302kts
06-Aug-18 16:49 36.802721 -119.456129 122 4995ft 274kts
06-Aug-18 16:50 36.746037 -119.416291 206 5024ft 254kts
06-Aug-18 16:51 36.684062 -119.462043 224 3976ft 248kts
06-Aug-18 16:52 36.675891 -119.537043 291 3299ft 227kts
06-Aug-18 16:53 36.710392 -119.601605 304 2320ft 222kts
06-Aug-18 16:54 36.744834 -119.661664 305 1186ft 195kts
06-Aug-18 16:55 36.769928 -119.705465 304 347ft 135kts
06-Aug-18 16:56 36.779524 -119.724276 214 336ft 0kts
06-Aug-18 16:57 36.775856 -119.722304 123 336ft 31kts

Navigation Log

Ident Type
Flight plan parsing failed, navigation log unavailable